Time;durP1;ratioP1;P1;durP2;ratioP2;P2;SDS_P1;SDS_P2;PMS_P1;PMS_P2;Temp;Humidity;BMP_temperature;BMP_pressure;BME280_temperature;BME280_humidity;BME280_pressure;Samples;Min_cycle;Max_cycle;Signal;HPM_P1;HPM_P2
2023/08/02 00:01:10;;;;;;;2.40;1.70;;;24.30;51.90;;;;;;5000572;28;20649;-44
2023/08/02 00:03:36;;;;;;;6.50;1.77;;;24.40;51.60;;;;;;5012202;28;20479;-45
2023/08/02 00:06:02;;;;;;;3.00;2.47;;;24.50;51.50;;;;;;4998529;28;20281;-44
2023/08/02 00:08:29;;;;;;;2.63;1.57;;;24.50;51.30;;;;;;4999598;28;20202;-46
2023/08/02 00:10:54;;;;;;;2.13;1.83;;;24.60;51.40;;;;;;5005279;28;20434;-45
2023/08/02 00:13:20;;;;;;;2.97;1.53;;;24.70;51.00;;;;;;5001628;28;20843;-45
2023/08/02 00:15:46;;;;;;;1.50;1.40;;;24.70;50.70;;;;;;5012303;28;20693;-45
2023/08/02 00:18:12;;;;;;;3.70;1.90;;;24.80;51.10;;;;;;5010607;28;20284;-48
2023/08/02 00:20:39;;;;;;;2.87;1.80;;;24.90;50.80;;;;;;5007758;28;20202;-44
2023/08/02 00:23:05;;;;;;;2.60;1.70;;;25.00;50.50;;;;;;5007280;28;20288;-45
2023/08/02 00:25:31;;;;;;;2.27;1.63;;;25.00;50.40;;;;;;5010358;28;20955;-45
2023/08/02 00:27:57;;;;;;;2.20;1.67;;;25.00;50.40;;;;;;4996706;28;20434;-45
2023/08/02 00:30:23;;;;;;;2.23;1.67;;;25.10;50.30;;;;;;5006500;28;20507;-46
2023/08/02 00:32:49;;;;;;;4.50;1.80;;;25.10;49.90;;;;;;5018262;28;20439;-44
2023/08/02 00:35:15;;;;;;;2.37;1.33;;;25.10;49.90;;;;;;5010841;28;20289;-45
2023/08/02 00:37:42;;;;;;;2.30;1.60;;;25.10;49.60;;;;;;5010580;28;20497;-46
2023/08/02 00:40:09;;;;;;;1.70;1.60;;;25.20;49.90;;;;;;5002891;28;21032;-46
2023/08/02 00:42:37;;;;;;;2.63;1.70;;;25.10;49.10;;;;;;5007728;28;20445;-45
2023/08/02 00:45:03;;;;;;;1.83;1.60;;;25.10;49.70;;;;;;5009958;28;20440;-44
2023/08/02 00:47:34;;;;;;;3.90;1.33;;;24.90;49.20;;;;;;5007932;28;20440;-46
2023/08/02 00:50:01;;;;;;;2.40;1.60;;;24.80;48.90;;;;;;5009103;28;20437;-49
2023/08/02 00:52:27;;;;;;;2.90;1.73;;;24.80;49.60;;;;;;5009729;28;20567;-45
2023/08/02 00:54:53;;;;;;;1.50;1.40;;;24.80;50.30;;;;;;5006830;28;20528;-46
2023/08/02 00:57:18;;;;;;;2.20;2.00;;;24.80;50.00;;;;;;5010408;28;20198;-47
2023/08/02 00:59:44;;;;;;;1.90;1.80;;;24.80;49.80;;;;;;5005419;28;21163;-45
2023/08/02 01:02:10;;;;;;;2.03;1.80;;;25.00;50.00;;;;;;5010241;28;20201;-45
2023/08/02 01:04:37;;;;;;;2.20;1.97;;;25.10;49.70;;;;;;5002857;28;20225;-44
2023/08/02 01:07:15;;;;;;;2.47;1.90;;;25.10;49.30;;;;;;4995177;28;20201;-45
2023/08/02 01:09:47;;;;;;;2.87;1.63;;;25.10;49.40;;;;;;5000927;28;21273;-45
2023/08/02 01:12:15;;;;;;;2.30;1.83;;;25.00;49.50;;;;;;5009137;28;20443;-44
2023/08/02 01:14:43;;;;;;;2.23;2.03;;;25.10;49.40;;;;;;5010953;28;20479;-47
2023/08/02 01:17:13;;;;;;;2.63;1.73;;;25.20;49.60;;;;;;5007162;28;20489;-45
2023/08/02 01:19:38;;;;;;;2.97;1.60;;;25.20;49.50;;;;;;5004020;28;20444;-45
2023/08/02 01:22:04;;;;;;;4.33;1.80;;;25.20;49.50;;;;;;5004055;28;20499;-45
2023/08/02 01:24:36;;;;;;;2.00;1.67;;;25.20;49.60;;;;;;5009104;28;20209;-45
2023/08/02 01:27:23;;;;;;;3.27;1.50;;;25.20;49.50;;;;;;5002003;28;20213;-47
2023/08/02 01:29:51;;;;;;;5.70;1.67;;;25.30;49.50;;;;;;5008320;28;20451;-46
2023/08/02 01:32:21;;;;;;;1.67;1.57;;;25.30;49.60;;;;;;4999541;28;20457;-46
2023/08/02 01:34:47;;;;;;;2.23;1.83;;;25.30;49.40;;;;;;5005440;28;20460;-46
2023/08/02 01:37:12;;;;;;;3.03;1.90;;;25.30;49.30;;;;;;5004416;28;20463;-46
2023/08/02 01:39:38;;;;;;;1.73;1.57;;;25.30;49.40;;;;;;4999309;28;20442;-44
2023/08/02 01:42:04;;;;;;;2.40;1.77;;;25.30;49.40;;;;;;5007526;28;20607;-45
2023/08/02 01:44:29;;;;;;;4.93;1.90;;;25.30;49.20;;;;;;5009058;28;20194;-46
2023/08/02 01:46:55;;;;;;;2.80;2.13;;;25.30;49.20;;;;;;5002577;28;20225;-45
2023/08/02 01:49:21;;;;;;;1.70;1.60;;;25.20;48.90;;;;;;5001882;28;20205;-44
2023/08/02 01:51:47;;;;;;;2.20;1.60;;;25.10;49.10;;;;;;4997854;28;20233;-45
2023/08/02 01:59:03;;;;;;;2.33;1.70;;;25.10;49.80;;;;;;5007314;28;20643;-46
2023/08/02 02:01:29;;;;;;;2.23;1.60;;;25.10;49.70;;;;;;5004024;28;20193;-46
2023/08/02 02:03:54;;;;;;;3.10;1.80;;;25.10;49.70;;;;;;5002097;28;20277;-45
2023/08/02 02:06:20;;;;;;;3.53;1.87;;;25.20;49.80;;;;;;5000480;28;20650;-45
2023/08/02 02:08:46;;;;;;;3.33;1.97;;;25.20;49.40;;;;;;5002818;28;20662;-46
2023/08/02 02:11:12;;;;;;;2.30;1.70;;;25.20;49.10;;;;;;5000729;28;20194;-45
2023/08/02 02:13:38;;;;;;;2.07;1.50;;;25.20;49.50;;;;;;5002112;28;20421;-46
2023/08/02 02:16:03;;;;;;;1.60;1.50;;;25.20;49.70;;;;;;5009632;28;20197;-47
2023/08/02 02:18:29;;;;;;;2.27;1.63;;;25.20;49.50;;;;;;5005707;28;20232;-47
2023/08/02 02:20:54;;;;;;;1.70;1.60;;;25.20;49.40;;;;;;5006823;28;20194;-45
2023/08/02 02:23:20;;;;;;;1.77;1.47;;;25.20;49.40;;;;;;4999933;28;20206;-44
2023/08/02 02:25:45;;;;;;;1.80;1.43;;;25.20;49.60;;;;;;5001437;28;20261;-46
2023/08/02 02:28:11;;;;;;;2.13;1.90;;;25.20;49.70;;;;;;5007460;28;20281;-46
2023/08/02 02:30:37;;;;;;;1.70;1.60;;;25.20;50.10;;;;;;4993376;28;20190;-47
2023/08/02 02:33:04;;;;;;;2.80;2.30;;;25.20;49.50;;;;;;5010354;28;20425;-45
2023/08/02 02:35:30;;;;;;;3.67;1.67;;;25.30;49.50;;;;;;5008416;28;20194;-45
2023/08/02 02:37:55;;;;;;;3.90;2.00;;;25.30;49.40;;;;;;5004863;28;20487;-44
2023/08/02 02:40:21;;;;;;;2.13;1.70;;;25.30;49.50;;;;;;5009604;28;20185;-45
2023/08/02 02:42:46;;;;;;;2.00;1.80;;;25.30;49.50;;;;;;5018437;28;20193;-44
2023/08/02 02:45:13;;;;;;;1.47;1.37;;;25.30;49.40;;;;;;5022098;28;20236;-45
2023/08/02 02:47:39;;;;;;;1.60;1.50;;;25.30;49.50;;;;;;5023262;28;20201;-46
2023/08/02 02:50:05;;;;;;;3.00;1.70;;;25.20;49.50;;;;;;4994498;28;20426;-45
2023/08/02 02:52:31;;;;;;;1.83;1.73;;;25.20;49.40;;;;;;5016787;28;20240;-45
2023/08/02 02:54:57;;;;;;;2.90;2.10;;;25.10;49.70;;;;;;5014294;28;20219;-45
2023/08/02 02:57:22;;;;;;;4.23;1.67;;;25.10;49.80;;;;;;5013861;28;20913;-45
2023/08/02 02:59:48;;;;;;;1.57;1.47;;;25.10;49.90;;;;;;5013722;28;20198;-49
2023/08/02 03:02:13;;;;;;;3.10;2.13;;;25.10;49.70;;;;;;4999659;28;20253;-48
2023/08/02 03:04:39;;;;;;;1.80;1.70;;;25.00;49.00;;;;;;5015565;28;20198;-50
2023/08/02 03:07:05;;;;;;;2.37;2.17;;;24.90;49.20;;;;;;4994021;28;20249;-50
2023/08/02 03:09:30;;;;;;;2.40;1.60;;;24.90;49.00;;;;;;5009895;28;20645;-49
2023/08/02 03:11:56;;;;;;;4.33;1.70;;;24.60;49.00;;;;;;5013495;28;20190;-49
2023/08/02 03:14:22;;;;;;;2.73;2.00;;;24.40;50.00;;;;;;5012631;28;20197;-51
2023/08/02 03:16:47;;;;;;;1.70;1.60;;;24.20;50.10;;;;;;5024488;28;20194;-49
2023/08/02 03:19:13;;;;;;;2.17;1.97;;;23.80;50.80;;;;;;5007199;28;20594;-48
2023/08/02 03:21:39;;;;;;;2.20;1.87;;;23.60;51.30;;;;;;5009774;28;20225;-50
2023/08/02 03:24:05;;;;;;;2.30;1.67;;;23.50;51.60;;;;;;5009441;28;20225;-50
2023/08/02 03:26:31;;;;;;;1.70;1.60;;;23.30;52.00;;;;;;5015855;28;20478;-49
2023/08/02 03:28:57;;;;;;;2.00;1.80;;;23.20;52.50;;;;;;5004793;28;20477;-49
2023/08/02 03:31:22;;;;;;;2.43;1.80;;;23.10;52.50;;;;;;5011491;28;20202;-48
2023/08/02 03:33:48;;;;;;;2.10;1.90;;;23.00;52.80;;;;;;5008709;28;20304;-50
2023/08/02 03:36:14;;;;;;;3.90;2.03;;;23.10;52.70;;;;;;5014773;28;20199;-50
2023/08/02 03:38:41;;;;;;;2.67;1.73;;;23.00;52.60;;;;;;5012534;28;20227;-50
2023/08/02 03:41:07;;;;;;;4.37;1.83;;;23.00;52.90;;;;;;5005258;28;20456;-49
2023/08/02 03:43:32;;;;;;;2.53;1.77;;;23.10;52.70;;;;;;5007147;28;20523;-47
2023/08/02 03:45:58;;;;;;;3.90;2.10;;;23.10;52.60;;;;;;5010483;28;20548;-47
2023/08/02 03:48:25;;;;;;;2.33;2.13;;;22.90;52.70;;;;;;5008278;28;20225;-50
2023/08/02 03:50:50;;;;;;;3.53;1.73;;;22.90;52.70;;;;;;5008046;28;20201;-49
2023/08/02 03:53:16;;;;;;;2.50;2.00;;;22.90;53.60;;;;;;5003009;28;21045;-51
2023/08/02 03:55:42;;;;;;;3.87;2.00;;;22.70;53.20;;;;;;4994050;28;20241;-47
2023/08/02 03:58:07;;;;;;;2.67;1.90;;;22.80;53.20;;;;;;4993065;28;20222;-48
2023/08/02 04:00:33;;;;;;;2.20;1.93;;;22.70;53.20;;;;;;4999899;28;20282;-50
2023/08/02 04:03:00;;;;;;;2.40;2.20;;;22.70;53.00;;;;;;5011112;28;20256;-50
2023/08/02 04:05:25;;;;;;;2.33;1.63;;;22.80;53.10;;;;;;5005736;28;20198;-46
2023/08/02 04:07:51;;;;;;;3.70;2.30;;;22.60;53.00;;;;;;5012912;28;20481;-49
2023/08/02 04:10:16;;;;;;;3.50;2.00;;;22.60;53.10;;;;;;5010371;28;20194;-45
2023/08/02 04:12:42;;;;;;;4.33;1.90;;;22.60;53.00;;;;;;5007436;28;20208;-49
2023/08/02 04:15:09;;;;;;;2.73;1.60;;;22.50;53.00;;;;;;5005077;28;20225;-47
2023/08/02 04:17:34;;;;;;;3.00;1.87;;;22.60;53.10;;;;;;5008364;28;20230;-50
2023/08/02 04:20:01;;;;;;;2.63;1.80;;;22.60;52.90;;;;;;5006214;28;20994;-49
2023/08/02 04:22:28;;;;;;;3.83;2.07;;;22.60;52.90;;;;;;5008225;28;20193;-48
2023/08/02 04:24:54;;;;;;;4.20;1.97;;;22.50;52.80;;;;;;5007039;28;20441;-47
2023/08/02 04:27:19;;;;;;;2.67;1.70;;;22.50;52.80;;;;;;5017966;28;20522;-48
2023/08/02 04:29:45;;;;;;;2.00;1.70;;;22.50;52.70;;;;;;5016968;28;20197;-47
2023/08/02 04:32:11;;;;;;;3.50;1.97;;;22.40;53.00;;;;;;5005323;28;21010;-48
2023/08/02 04:34:36;;;;;;;2.20;1.80;;;22.40;52.90;;;;;;5007366;28;20193;-48
2023/08/02 04:37:02;;;;;;;3.93;2.43;;;22.30;53.40;;;;;;5010495;28;20198;-44
2023/08/02 04:39:27;;;;;;;2.23;1.90;;;22.30;53.40;;;;;;5006176;28;20665;-45
2023/08/02 04:41:54;;;;;;;3.37;2.30;;;22.40;53.70;;;;;;4998838;28;20202;-44
2023/08/02 04:44:20;;;;;;;2.57;2.27;;;22.40;54.00;;;;;;5022281;28;20205;-45
2023/08/02 04:46:46;;;;;;;2.70;2.03;;;22.30;54.70;;;;;;5006896;28;20946;-48
2023/08/02 04:49:11;;;;;;;2.50;1.90;;;22.30;55.00;;;;;;5008137;28;20618;-46
2023/08/02 04:51:38;;;;;;;2.20;1.80;;;22.40;55.10;;;;;;5008224;28;20196;-44
2023/08/02 04:54:04;;;;;;;2.50;2.17;;;22.40;55.40;;;;;;5007019;28;20208;-48
2023/08/02 04:56:30;;;;;;;2.30;2.10;;;22.50;55.50;;;;;;5020555;28;20449;-47
2023/08/02 04:58:56;;;;;;;2.83;2.33;;;22.40;55.70;;;;;;5014026;28;20491;-47
2023/08/02 05:01:22;;;;;;;2.50;2.00;;;22.40;56.30;;;;;;5005500;28;20503;-50
2023/08/02 05:03:47;;;;;;;3.77;2.47;;;22.30;56.50;;;;;;5010190;28;20274;-46
2023/08/02 05:06:13;;;;;;;4.00;2.20;;;22.20;57.20;;;;;;5017174;28;20594;-45
2023/08/02 05:08:38;;;;;;;4.13;2.23;;;22.20;57.20;;;;;;5008368;28;20268;-46
2023/08/02 05:11:05;;;;;;;3.93;2.87;;;22.40;57.50;;;;;;4997502;28;20193;-45
2023/08/02 05:13:31;;;;;;;2.37;2.20;;;22.30;57.60;;;;;;5009764;28;20665;-47
2023/08/02 05:15:57;;;;;;;3.13;2.00;;;22.30;57.80;;;;;;5008199;28;20527;-48
2023/08/02 05:18:23;;;;;;;2.20;2.00;;;22.40;57.80;;;;;;5007363;28;20511;-45
2023/08/02 05:20:49;;;;;;;2.90;2.20;;;22.50;57.80;;;;;;5007616;28;20229;-46
2023/08/02 05:23:15;;;;;;;2.83;2.17;;;22.50;57.80;;;;;;5009905;28;20657;-46
2023/08/02 05:25:41;;;;;;;2.40;2.13;;;22.60;58.00;;;;;;5004455;28;20452;-46
2023/08/02 05:28:07;;;;;;;6.43;3.00;;;22.50;58.10;;;;;;5006455;28;20563;-46
2023/08/02 05:30:33;;;;;;;6.10;2.53;;;22.30;58.30;;;;;;4993586;28;20528;-46
2023/08/02 05:32:58;;;;;;;3.67;2.33;;;22.30;58.90;;;;;;5012704;28;20264;-45
2023/08/02 05:35:25;;;;;;;4.33;2.10;;;21.90;59.70;;;;;;5004107;28;20445;-47
2023/08/02 05:37:54;;;;;;;5.43;2.40;;;21.70;60.80;;;;;;4999759;28;20488;-46
2023/08/02 05:40:20;;;;;;;3.37;2.10;;;21.80;60.90;;;;;;4995240;28;20459;-46
2023/08/02 05:42:46;;;;;;;2.60;2.23;;;21.70;61.50;;;;;;5007323;28;20840;-45
2023/08/02 05:45:11;;;;;;;2.83;2.30;;;21.60;62.10;;;;;;5006359;28;20201;-45
2023/08/02 05:47:37;;;;;;;4.53;2.73;;;21.70;62.40;;;;;;5007058;28;20658;-46
2023/08/02 05:50:03;;;;;;;2.80;2.50;;;21.70;63.00;;;;;;5006134;28;20206;-46
2023/08/02 05:52:29;;;;;;;2.97;2.20;;;21.80;62.90;;;;;;5008444;28;20265;-46
2023/08/02 05:54:55;;;;;;;4.63;2.70;;;21.80;63.10;;;;;;5005565;28;20469;-45
2023/08/02 05:57:20;;;;;;;3.70;2.53;;;21.60;63.70;;;;;;5009121;28;20198;-46
2023/08/02 05:59:48;;;;;;;4.33;2.63;;;21.30;65.20;;;;;;5008678;28;20705;-45
2023/08/02 06:02:14;;;;;;;5.93;2.77;;;20.80;67.70;;;;;;5006958;28;20193;-45
2023/08/02 06:04:42;;;;;;;2.63;2.10;;;20.60;69.20;;;;;;5009479;28;20437;-46
2023/08/02 06:07:07;;;;;;;5.30;2.40;;;20.50;69.50;;;;;;5008025;28;20205;-45
2023/08/02 06:09:33;;;;;;;4.47;2.63;;;20.30;71.10;;;;;;5011050;28;20437;-45
2023/08/02 06:11:59;;;;;;;5.30;2.90;;;19.90;73.10;;;;;;5008183;28;20201;-45
2023/08/02 06:14:25;;;;;;;2.60;2.40;;;19.60;76.00;;;;;;5010348;28;20247;-46
2023/08/02 06:16:50;;;;;;;3.33;2.60;;;19.60;77.00;;;;;;4992973;28;20198;-47
2023/08/02 06:19:16;;;;;;;4.30;2.70;;;19.80;76.00;;;;;;4995049;28;21327;-45
2023/08/02 06:21:41;;;;;;;5.27;2.93;;;20.10;74.90;;;;;;5012333;28;20194;-46
2023/08/02 06:24:07;;;;;;;4.33;2.80;;;19.90;76.40;;;;;;5009933;28;20193;-45
2023/08/02 06:26:33;;;;;;;3.20;2.80;;;19.80;76.40;;;;;;5009748;28;20327;-46
2023/08/02 06:29:00;;;;;;;4.00;3.10;;;19.60;79.90;;;;;;5010514;28;20190;-48
2023/08/02 06:31:25;;;;;;;5.30;3.23;;;19.60;79.80;;;;;;5008794;28;20246;-47
2023/08/02 06:33:51;;;;;;;4.80;3.27;;;19.70;79.70;;;;;;5008305;28;20472;-46
2023/08/02 06:36:16;;;;;;;3.50;3.17;;;19.60;80.30;;;;;;4994741;28;20194;-45
2023/08/02 06:38:42;;;;;;;6.50;3.30;;;19.40;82.20;;;;;;5007573;28;20644;-46
2023/08/02 06:41:09;;;;;;;4.20;3.80;;;19.50;82.10;;;;;;5007084;28;20244;-52
2023/08/02 06:43:34;;;;;;;5.90;3.70;;;19.80;81.00;;;;;;5009494;28;20612;-48
2023/08/02 06:46:00;;;;;;;5.60;3.90;;;19.90;79.50;;;;;;5009840;28;20440;-45
2023/08/02 06:48:26;;;;;;;5.30;3.30;;;20.10;78.30;;;;;;5008962;28;20197;-45
2023/08/02 06:50:52;;;;;;;6.20;4.97;;;20.20;77.60;;;;;;5005980;28;20604;-46
2023/08/02 06:53:18;;;;;;;7.23;4.33;;;20.20;77.40;;;;;;5005144;28;20469;-46
2023/08/02 06:55:44;;;;;;;6.90;3.00;;;20.40;76.30;;;;;;5003893;28;20448;-47
2023/08/02 06:58:09;;;;;;;4.07;3.67;;;20.30;76.10;;;;;;5002468;28;20485;-45
2023/08/02 07:00:35;;;;;;;6.00;3.60;;;20.50;75.20;;;;;;5004741;28;20208;-48
2023/08/02 07:03:02;;;;;;;4.00;3.60;;;20.80;73.90;;;;;;5007043;28;20657;-47
2023/08/02 07:05:31;;;;;;;5.33;4.10;;;21.00;72.80;;;;;;5008528;28;20186;-46
2023/08/02 07:07:57;;;;;;;14.27;3.50;;;21.20;71.40;;;;;;5006088;28;21003;-45
2023/08/02 07:10:24;;;;;;;8.17;4.67;;;21.30;71.20;;;;;;5001524;28;20476;-45
2023/08/02 07:12:50;;;;;;;20.40;5.80;;;21.40;71.20;;;;;;4998972;28;20456;-45
2023/08/02 07:15:16;;;;;;;17.70;5.27;;;21.60;70.80;;;;;;5005235;28;20437;-45
2023/08/02 07:17:44;;;;;;;14.53;5.00;;;21.70;69.40;;;;;;5010023;28;20193;-46
2023/08/02 07:20:10;;;;;;;12.70;4.90;;;21.60;70.30;;;;;;5005609;28;20451;-45
2023/08/02 07:22:36;;;;;;;10.77;4.27;;;21.60;70.40;;;;;;5008458;28;20495;-45
2023/08/02 07:25:02;;;;;;;8.50;4.77;;;21.80;69.90;;;;;;5008902;28;20802;-46
2023/08/02 07:27:28;;;;;;;11.47;4.00;;;21.80;69.50;;;;;;5012018;28;20474;-45
2023/08/02 07:29:56;;;;;;;6.50;5.13;;;21.90;69.60;;;;;;5004123;28;20194;-48
2023/08/02 07:32:22;;;;;;;7.87;4.47;;;21.90;69.60;;;;;;5001367;28;20284;-46
2023/08/02 07:34:47;;;;;;;7.03;3.90;;;21.80;71.30;;;;;;4999527;28;20444;-49
2023/08/02 07:37:13;;;;;;;6.40;4.90;;;21.90;72.40;;;;;;5010511;28;20932;-45
2023/08/02 07:39:40;;;;;;;7.60;5.33;;;21.80;72.10;;;;;;5007624;28;20230;-46
2023/08/02 07:42:06;;;;;;;5.47;4.97;;;21.70;72.80;;;;;;5003701;28;20269;-46
2023/08/02 07:44:32;;;;;;;6.83;5.70;;;21.30;73.20;;;;;;5007644;28;20531;-48
2023/08/02 07:46:57;;;;;;;4.90;4.20;;;21.30;75.90;;;;;;5007028;28;20910;-45
2023/08/02 07:49:23;;;;;;;5.20;4.30;;;21.20;75.00;;;;;;5009059;28;20194;-46
2023/08/02 07:51:48;;;;;;;4.60;4.20;;;21.30;75.20;;;;;;5008031;28;20206;-49
2023/08/02 07:54:14;;;;;;;5.90;3.90;;;21.10;75.70;;;;;;5004368;28;20205;-45
2023/08/02 07:56:39;;;;;;;9.93;4.23;;;21.10;76.60;;;;;;5006140;28;20232;-47
2023/08/02 07:59:05;;;;;;;5.13;4.50;;;21.30;76.20;;;;;;5007484;28;20800;-45
2023/08/02 08:01:31;;;;;;;4.93;4.20;;;21.60;75.40;;;;;;4999464;28;20193;-45
2023/08/02 08:03:56;;;;;;;6.00;4.03;;;21.70;75.00;;;;;;5002503;28;20229;-45
2023/08/02 08:06:23;;;;;;;5.60;4.20;;;21.50;76.50;;;;;;4997639;28;20202;-48
2023/08/02 08:08:50;;;;;;;5.00;4.53;;;21.50;78.00;;;;;;5009660;28;21002;-45
2023/08/02 08:11:15;;;;;;;7.27;4.87;;;21.40;77.40;;;;;;5001625;28;20521;-47
2023/08/02 08:13:41;;;;;;;7.53;5.97;;;21.30;79.30;;;;;;5006935;28;20532;-45
2023/08/02 08:16:07;;;;;;;5.83;5.33;;;20.90;81.10;;;;;;5005665;28;20245;-47
2023/08/02 08:18:34;;;;;;;5.63;5.00;;;20.80;82.40;;;;;;5008305;28;20229;-45
2023/08/02 08:21:01;;;;;;;6.13;5.53;;;20.60;85.10;;;;;;5005300;28;20935;-47
2023/08/02 08:23:28;;;;;;;5.57;5.00;;;20.50;85.40;;;;;;5000252;28;20477;-46
2023/08/02 08:25:53;;;;;;;6.53;5.00;;;20.70;85.00;;;;;;5003934;28;20468;-46
2023/08/02 08:28:19;;;;;;;7.77;5.20;;;21.10;83.20;;;;;;5004527;28;20441;-45
2023/08/02 08:30:45;;;;;;;6.90;5.53;;;21.10;80.40;;;;;;5007387;28;20912;-47
2023/08/02 08:33:10;;;;;;;5.60;5.00;;;21.20;80.40;;;;;;5008556;28;20201;-48
2023/08/02 08:35:36;;;;;;;4.90;4.47;;;21.40;80.00;;;;;;5005620;28;20316;-47
2023/08/02 08:38:03;;;;;;;5.63;4.60;;;21.20;80.30;;;;;;5007673;28;20654;-45
2023/08/02 08:40:28;;;;;;;5.70;4.53;;;21.20;81.20;;;;;;5007953;28;20241;-46
2023/08/02 08:42:56;;;;;;;5.87;4.93;;;21.10;81.20;;;;;;5005144;28;20445;-45
2023/08/02 08:45:23;;;;;;;6.40;5.53;;;20.90;83.10;;;;;;5009532;28;20197;-45
2023/08/02 08:47:50;;;;;;;6.07;5.47;;;21.00;83.10;;;;;;5005895;28;20448;-49
2023/08/02 08:50:18;;;;;;;8.00;4.80;;;21.00;82.40;;;;;;5005563;28;20548;-51
2023/08/02 08:52:46;;;;;;;6.20;5.00;;;21.10;83.20;;;;;;5003935;28;20479;-47
2023/08/02 08:55:16;;;;;;;6.43;5.53;;;21.30;82.10;;;;;;5001555;28;20529;-46
2023/08/02 08:57:43;;;;;;;4.83;4.43;;;21.30;81.30;;;;;;5004862;28;20457;-50
2023/08/02 09:00:10;;;;;;;5.30;4.50;;;21.30;81.60;;;;;;5005203;28;20456;-48
2023/08/02 09:02:39;;;;;;;5.20;4.60;;;21.20;81.20;;;;;;5006120;28;20821;-45
2023/08/02 09:05:05;;;;;;;4.90;4.50;;;21.10;83.00;;;;;;5008800;28;20459;-47
2023/08/02 09:07:31;;;;;;;4.70;4.30;;;21.00;83.00;;;;;;5004201;28;20449;-45
2023/08/02 09:09:57;;;;;;;5.53;4.10;;;21.10;82.70;;;;;;5000203;28;20551;-46
2023/08/02 09:12:27;;;;;;;6.33;3.80;;;21.30;82.10;;;;;;5001298;28;20459;-49
2023/08/02 09:15:04;;;;;;;4.50;4.03;;;21.30;81.10;;;;;;5004700;28;20464;-46
2023/08/02 09:17:46;;;;;;;4.20;3.80;;;21.30;81.80;;;;;;5004032;28;20452;-45
2023/08/02 09:20:12;;;;;;;3.87;3.57;;;21.40;81.30;;;;;;5003987;28;20508;-48
2023/08/02 09:22:38;;;;;;;4.40;3.90;;;21.50;80.50;;;;;;5007201;28;20481;-45
2023/08/02 09:25:07;;;;;;;3.83;3.53;;;21.60;79.80;;;;;;5006335;28;20487;-49
2023/08/02 09:27:33;;;;;;;4.23;3.80;;;21.80;78.10;;;;;;5004295;28;20198;-48
2023/08/02 09:29:58;;;;;;;4.50;3.93;;;21.70;78.10;;;;;;5006671;28;21003;-45
2023/08/02 09:32:25;;;;;;;3.37;3.07;;;21.80;78.20;;;;;;5012846;28;20198;-49
2023/08/02 09:34:53;;;;;;;3.53;3.23;;;22.00;77.50;;;;;;5008634;28;20190;-50
2023/08/02 09:37:36;;;;;;;4.83;3.60;;;22.10;77.40;;;;;;5009685;28;20571;-48
2023/08/02 09:40:04;;;;;;;4.33;3.30;;;22.00;78.20;;;;;;5005243;28;20901;-46
2023/08/02 09:42:30;;;;;;;3.50;3.13;;;21.80;78.60;;;;;;5005381;28;20495;-49
2023/08/02 09:45:00;;;;;;;4.13;3.03;;;21.80;79.70;;;;;;5007715;28;20433;-45
2023/08/02 09:47:27;;;;;;;3.70;3.40;;;21.90;79.80;;;;;;5005764;28;20198;-49
2023/08/02 09:50:04;;;;;;;3.13;2.83;;;22.10;79.40;;;;;;5009298;28;20429;-47
2023/08/02 09:52:30;;;;;;;6.07;3.63;;;22.10;79.30;;;;;;5003357;28;20480;-48
2023/08/02 09:54:55;;;;;;;3.70;3.40;;;22.10;80.00;;;;;;5004154;28;20451;-48
2023/08/02 09:57:26;;;;;;;3.50;3.20;;;22.30;78.90;;;;;;5003218;28;20204;-52
2023/08/02 09:59:58;;;;;;;4.13;3.43;;;22.20;78.80;;;;;;5008893;28;20233;-46
2023/08/02 10:02:25;;;;;;;3.20;2.90;;;22.20;79.60;;;;;;5002174;28;20461;-50
2023/08/02 10:04:56;;;;;;;5.47;3.60;;;22.40;79.20;;;;;;4998340;28;20445;-51
2023/08/02 10:07:29;;;;;;;5.40;3.40;;;22.50;78.60;;;;;;5002782;28;20448;-50
2023/08/02 10:10:00;;;;;;;4.00;3.33;;;22.40;78.40;;;;;;5009705;28;20859;-50
2023/08/02 10:12:28;;;;;;;4.50;3.23;;;22.50;77.80;;;;;;4993629;28;20808;-49
2023/08/02 10:14:57;;;;;;;4.50;3.20;;;22.70;77.80;;;;;;5004194;28;20987;-50
2023/08/02 10:17:25;;;;;;;3.50;3.20;;;22.80;76.70;;;;;;4992849;28;20484;-50
2023/08/02 10:19:51;;;;;;;4.13;3.80;;;23.00;76.00;;;;;;4999928;28;20551;-50
2023/08/02 10:22:18;;;;;;;4.00;3.10;;;22.90;77.40;;;;;;5002505;28;20445;-51
2023/08/02 10:24:45;;;;;;;4.07;3.67;;;22.80;76.90;;;;;;5006713;28;20535;-50
2023/08/02 10:27:12;;;;;;;4.60;3.07;;;23.00;78.10;;;;;;5004803;28;20535;-50
2023/08/02 10:29:38;;;;;;;3.43;3.13;;;23.10;76.70;;;;;;5002293;28;20504;-50
2023/08/02 10:32:14;;;;;;;3.53;3.20;;;23.20;76.70;;;;;;5003138;28;20447;-48
2023/08/02 10:34:40;;;;;;;4.43;3.73;;;23.10;77.20;;;;;;4999812;28;20535;-50
2023/08/02 10:37:06;;;;;;;3.70;3.40;;;23.10;77.90;;;;;;5008551;28;20916;-47
2023/08/02 10:39:50;;;;;;;5.30;3.50;;;23.30;76.10;;;;;;5002147;28;20243;-51
2023/08/02 10:42:31;;;;;;;4.47;3.17;;;22.90;78.00;;;;;;5023004;28;20198;-49
2023/08/02 10:44:57;;;;;;;3.73;3.37;;;23.00;78.50;;;;;;5005751;28;20532;-49
2023/08/02 10:47:30;;;;;;;3.57;3.27;;;23.20;77.80;;;;;;5004749;28;20463;-47
2023/08/02 10:49:57;;;;;;;5.30;3.70;;;23.30;76.00;;;;;;5003803;28;20228;-47
2023/08/02 10:52:28;;;;;;;3.40;2.90;;;23.20;77.40;;;;;;4996708;28;20457;-50
2023/08/02 10:55:10;;;;;;;4.80;4.07;;;23.10;76.60;;;;;;5006859;28;20441;-47
2023/08/02 10:57:37;;;;;;;4.07;3.67;;;23.10;77.10;;;;;;5009362;28;20433;-49
2023/08/02 11:00:16;;;;;;;6.03;3.80;;;23.20;76.30;;;;;;5008918;28;20444;-50
2023/08/02 11:02:50;;;;;;;3.77;3.40;;;23.40;74.90;;;;;;5009014;28;20448;-48
2023/08/02 11:05:42;;;;;;;4.70;4.07;;;23.50;73.80;;;;;;5008862;28;20923;-46
2023/08/02 11:08:09;;;;;;;4.03;3.63;;;23.40;75.30;;;;;;5004802;28;20531;-51
2023/08/02 11:10:52;;;;;;;4.60;4.20;;;23.30;76.10;;;;;;5001590;28;20452;-46
2023/08/02 11:13:20;;;;;;;4.03;3.50;;;23.60;74.30;;;;;;5008572;28;20451;-50
2023/08/02 11:15:45;;;;;;;4.10;3.73;;;23.90;73.10;;;;;;5007967;28;20452;-47
2023/08/02 11:18:11;;;;;;;3.57;3.27;;;23.90;72.70;;;;;;5011713;28;21295;-47
2023/08/02 11:20:38;;;;;;;3.63;3.33;;;23.90;72.20;;;;;;5008860;28;20198;-49
2023/08/02 11:23:23;;;;;;;5.50;4.07;;;23.70;73.40;;;;;;4999956;28;20471;-49
2023/08/02 11:25:50;;;;;;;3.20;2.90;;;23.80;73.20;;;;;;5007610;28;20510;-50
2023/08/02 11:28:15;;;;;;;4.33;3.93;;;23.80;72.80;;;;;;5005781;28;20507;-49
2023/08/02 11:30:41;;;;;;;4.40;3.40;;;24.00;72.30;;;;;;5008404;28;20452;-46
2023/08/02 11:33:07;;;;;;;4.23;3.90;;;24.20;71.70;;;;;;5003402;28;20210;-46
2023/08/02 11:35:33;;;;;;;4.00;3.70;;;23.90;72.00;;;;;;5005092;28;20205;-48
2023/08/02 11:37:59;;;;;;;4.40;4.00;;;23.60;74.40;;;;;;5003969;28;20229;-52
2023/08/02 11:40:37;;;;;;;4.47;4.00;;;23.70;74.00;;;;;;5009274;28;20202;-47
2023/08/02 11:43:03;;;;;;;6.77;4.20;;;23.90;73.40;;;;;;5001495;28;20840;-49
2023/08/02 11:45:33;;;;;;;4.13;3.73;;;24.00;73.00;;;;;;5003713;28;20478;-50
2023/08/02 11:47:59;;;;;;;4.63;4.00;;;23.90;73.00;;;;;;5002793;28;20796;-50
2023/08/02 11:50:27;;;;;;;4.43;3.60;;;24.00;73.20;;;;;;5009053;28;20496;-49
2023/08/02 11:53:02;;;;;;;4.73;4.33;;;24.00;73.00;;;;;;5006850;28;20472;-46
2023/08/02 11:55:27;;;;;;;3.87;3.53;;;24.20;72.50;;;;;;5002985;28;20923;-49
2023/08/02 11:57:53;;;;;;;5.17;3.77;;;24.40;73.20;;;;;;5009134;28;20476;-47
2023/08/02 12:00:19;;;;;;;5.00;4.30;;;24.40;72.80;;;;;;5001157;28;20217;-48
2023/08/02 12:02:46;;;;;;;4.33;3.93;;;24.50;73.20;;;;;;4997114;28;20198;-51
2023/08/02 12:05:19;;;;;;;5.60;3.93;;;24.60;73.40;;;;;;4998080;28;20206;-46
2023/08/02 12:07:45;;;;;;;3.77;3.37;;;24.50;72.00;;;;;;5005066;28;20532;-51
2023/08/02 12:10:25;;;;;;;4.33;3.93;;;24.60;72.10;;;;;;5003882;28;20531;-46
2023/08/02 12:12:50;;;;;;;4.17;3.77;;;24.60;71.20;;;;;;4996818;28;20627;-47
2023/08/02 12:15:18;;;;;;;4.60;4.10;;;24.70;71.40;;;;;;5011182;28;20428;-49
2023/08/02 12:17:44;;;;;;;5.10;3.80;;;24.70;70.70;;;;;;5004748;28;20202;-47
2023/08/02 12:20:28;;;;;;;4.70;4.30;;;24.60;70.60;;;;;;5001284;28;20543;-51
2023/08/02 12:22:54;;;;;;;7.70;4.47;;;24.60;71.60;;;;;;5011765;28;20197;-50
2023/08/02 12:25:20;;;;;;;4.07;3.77;;;24.80;71.50;;;;;;4997288;28;20425;-46
2023/08/02 12:28:05;;;;;;;6.07;4.40;;;24.90;69.70;;;;;;5009977;28;20715;-47
2023/08/02 12:30:31;;;;;;;4.37;3.97;;;24.50;68.60;;;;;;5003635;28;20191;-47
2023/08/02 12:32:58;;;;;;;4.07;3.73;;;24.50;70.20;;;;;;5003559;28;20932;-49
2023/08/02 12:35:23;;;;;;;3.93;3.60;;;24.60;70.20;;;;;;5004639;28;20611;-46
2023/08/02 12:37:51;;;;;;;3.80;3.50;;;24.90;69.50;;;;;;5004514;28;20532;-47
2023/08/02 12:40:16;;;;;;;5.30;4.07;;;25.10;68.30;;;;;;5003276;28;20240;-49
2023/08/02 12:42:42;;;;;;;5.20;3.40;;;25.20;68.30;;;;;;5004735;28;20450;-47
2023/08/02 12:45:08;;;;;;;3.83;3.43;;;25.40;67.30;;;;;;5004516;28;20194;-47
2023/08/02 12:47:33;;;;;;;5.43;3.20;;;25.40;66.60;;;;;;5006025;28;20661;-46
2023/08/02 12:49:59;;;;;;;4.23;3.20;;;25.40;66.90;;;;;;5002503;28;20221;-47